Marshall Islands International Airport Majuro Atoll MH
ICAO: PKMJ
IATA: MAJ
Category: Medium
Scheduled Services:

Elevation: 6 ft
TransAlt. 18000 ft.

Airport Communications:
CTAF:123.6
MAJURO RDO:123.6

PKMJ Zoom In..

If you have problems with the map follow the link
https://www.worldairports.se/pages/airport.php?
ICAO=PKMJ

Runways:

(A) RW 07 length 7897 ft width 150 ft
---- / hdg 66

(B) RW 25 length 7897 ft width 150 ft
---- / hdg 246

Location; PKMJ
Day. 20 / Time. 22.59 Zulu
* Altimeter: 29.88
* Temperature: 30° c. 86°f.
* Wind from: VRB° Speed 04 kn.
Dewpoint: 25° c.
Visibility: 15 Statute Miles.
Clouds: Few 1500 ft.
Clouds: Scattered 5000 ft.
Clouds: Scattered 12000 ft.
Clouds: Broken 3000 ft.

PKMJ 202259Z VRB04KT 15SM FEW015 SCT050 SCT120 BKN300 30/25 A2988 RMK LAST


Wind From VRB°
Speed 04 kn.

 
 
jpsmedia worldairports.se 2020   terms of use